Station History

Weather Underground - logo

Station Historical Data
 
Daily Summary for February 22, 2019 Units:  Metric    English   Both
« Previous Day
Next Day »
Daily Weekly Monthly Yearly Custom
  Current: High: Low: Average:
Temperature: 8.3 °C 8.3 °C -0.1 °C 2.7 °C
Dew Point: 2.9 °C 3.1 °C -1.3 °C 1 °C
Humidity: 69 % 95 % 69 % 89 %
Wind Speed: 3.7 km/h 5.6 km/h 0 km/h 0.3 km/h
Wind Gust: 0.6 km/h 1.8 km/h - -
Wind:SSE - - ESE
Pressure: 1019.9 hPa 1019.9 hPa 1012.1 hPa -
Precipitation: 0 mm      
Historical Graphs
 
 
Tabular Data for February 22, 2019
Time Temperature Dew Point Pressure Wind Wind Speed Wind Gust Humidity Rainfall Rate (Hourly)
00:04 4.1 °C 2.2 °C 1012.1 hPa Calm     88 % 0 mm
00:09 3.9 °C 2.1 °C 1012.1 hPa Calm     88 % 0 mm
00:14 3.8 °C 2 °C 1012.1 hPa Calm     88 % 0 mm
00:19 3.6 °C 1.8 °C 1012.1 hPa Calm     88 % 0 mm
00:24 3.4 °C 1.8 °C 1012.4 hPa Calm     89 % 0 mm
00:29 3.3 °C 1.6 °C 1012.4 hPa Calm     89 % 0 mm
00:34 3.2 °C 1.6 °C 1012.4 hPa Calm     89 % 0 mm
00:39 3.1 °C 1.6 °C 1012.8 hPa Calm     90 % 0 mm
00:44 3 °C 1.5 °C 1012.8 hPa Calm     90 % 0 mm
00:49 3.1 °C 1.6 °C 1012.8 hPa Calm     90 % 0 mm
00:54 3.1 °C 1.6 °C 1012.8 hPa Calm     90 % 0 mm
00:59 3.1 °C 1.7 °C 1012.8 hPa Calm     91 % 0 mm
01:04 3.1 °C 1.6 °C 1013.1 hPa Calm     90 % 0 mm
01:09 3.1 °C 1.6 °C 1013.1 hPa Calm     90 % 0 mm
01:14 3.2 °C 1.7 °C 1013.1 hPa Calm     90 % 0 mm
01:19 3.3 °C 1.8 °C 1013.1 hPa Calm     90 % 0 mm
01:24 3.5 °C 1.8 °C 1013.1 hPa Calm     89 % 0 mm
01:29 3.7 °C 1.9 °C 1013.4 hPa Calm     88 % 0 mm
01:34 3.6 °C 1.8 °C 1013.1 hPa Calm     88 % 0 mm
01:39 3.6 °C 1.8 °C 1013.1 hPa Calm     88 % 0 mm
01:44 3.5 °C 1.7 °C 1013.4 hPa Calm     88 % 0 mm
01:49 3.3 °C 1.6 °C 1013.4 hPa Calm     88 % 0 mm
01:54 3.3 °C 1.8 °C 1013.4 hPa Calm     90 % 0 mm
01:59 3.2 °C 1.7 °C 1013.4 hPa Calm     90 % 0 mm
02:04 3.2 °C 1.7 °C 1013.8 hPa Calm     90 % 0 mm
02:09 3.2 °C 1.8 °C 1013.8 hPa Calm     91 % 0 mm
02:14 3.2 °C 1.8 °C 1013.4 hPa Calm     91 % 0 mm
02:19 3.1 °C 1.8 °C 1013.8 hPa Calm     91 % 0 mm
02:24 3 °C 1.7 °C 1013.8 hPa Calm     91 % 0 mm
02:29 2.9 °C 1.6 °C 1013.8 hPa Calm     91 % 0 mm
02:34 2.7 °C 1.4 °C 1013.8 hPa Calm     91 % 0 mm
02:39 2.6 °C 1.3 °C 1013.8 hPa Calm     91 % 0 mm
02:44 2.5 °C 1.2 °C 1013.8 hPa Calm     91 % 0 mm
02:49 2.4 °C 1.1 °C 1014.1 hPa Calm     91 % 0 mm
02:54 2.2 °C 0.9 °C 1013.8 hPa Calm     91 % 0 mm
02:59 2.1 °C 0.9 °C 1014.1 hPa Calm     92 % 0 mm
03:04 2.1 °C 0.9 °C 1014.1 hPa Calm     92 % 0 mm
03:09 2.1 °C 0.9 °C 1014.1 hPa Calm     92 % 0 mm
03:14 2.1 °C 1.1 °C 1014.1 hPa Calm     93 % 0 mm
03:19 1.9 °C 0.8 °C 1014.1 hPa Calm     92 % 0 mm
03:24 1.9 °C 0.7 °C 1014.1 hPa Calm     92 % 0 mm
03:29 1.8 °C 0.6 °C 1014.4 hPa Calm     92 % 0 mm
03:34 1.7 °C 0.5 °C 1014.4 hPa Calm     92 % 0 mm
03:39 1.8 °C 0.8 °C 1014.4 hPa Calm     93 % 0 mm
03:44 1.9 °C 0.9 °C 1014.4 hPa Calm     93 % 0 mm
03:49 1.9 °C 0.9 °C 1014.4 hPa Calm     93 % 0 mm
03:54 1.9 °C 0.9 °C 1014.4 hPa Calm     93 % 0 mm
03:59 2.1 °C 1.1 °C 1014.8 hPa East 1.9 km/h   93 % 0 mm
04:04 2.1 °C 1.1 °C 1014.8 hPa Calm     93 % 0 mm
04:09 2.2 °C 1.2 °C 1014.8 hPa Calm     93 % 0 mm
04:14 2.2 °C 1 °C 1014.8 hPa Calm     92 % 0 mm
04:19 2.2 °C 1 °C 1015.1 hPa Calm   0.2 km/h 92 % 0 mm
04:24 2.2 °C 1.1 °C 1015.1 hPa Calm     92 % 0 mm
04:29 2.3 °C 1.1 °C 1015.1 hPa Calm     92 % 0 mm
04:34 2.2 °C 0.9 °C 1015.1 hPa Calm     91 % 0 mm
04:39 2.1 °C 0.7 °C 1015.5 hPa Calm     91 % 0 mm
04:44 1.9 °C 0.6 °C 1015.5 hPa Calm     91 % 0 mm
04:49 1.9 °C 0.6 °C 1015.5 hPa Calm     91 % 0 mm
04:54 2.1 °C 0.8 °C 1015.8 hPa East 1.9 km/h   91 % 0 mm
04:59 2.2 °C 0.9 °C 1015.8 hPa Calm     91 % 0 mm
05:04 2 °C 0.4 °C 1015.8 hPa Calm     89 % 0 mm
05:09 1.4 °C -0.3 °C 1015.8 hPa Calm     88 % 0 mm
05:14 1.1 °C -0.6 °C 1016.1 hPa Calm     89 % 0 mm
05:19 0.8 °C -0.6 °C 1016.1 hPa Calm     90 % 0 mm
05:24 0.7 °C -0.8 °C 1016.1 hPa Calm     90 % 0 mm
05:29 0.6 °C -0.7 °C 1016.1 hPa Calm     91 % 0 mm
05:34 0.6 °C -0.6 °C 1016.1 hPa Calm     92 % 0 mm
05:39 0.6 °C -0.6 °C 1016.5 hPa Calm     92 % 0 mm
05:44 0.7 °C -0.5 °C 1016.5 hPa Calm     92 % 0 mm
05:49 0.8 °C -0.2 °C 1016.5 hPa Calm     93 % 0 mm
05:54 0.7 °C -0.5 °C 1016.5 hPa Calm     92 % 0 mm
05:59 0.6 °C -0.6 °C 1016.8 hPa Calm     92 % 0 mm
06:04 0.6 °C -0.4 °C 1016.8 hPa Calm     93 % 0 mm
06:09 0.8 °C -0.2 °C 1016.8 hPa East 1.9 km/h   93 % 0 mm
06:14 0.9 °C -0.1 °C 1016.8 hPa Calm     93 % 0 mm
06:19 0.8 °C -0.2 °C 1017.2 hPa Calm     93 % 0 mm
06:24 0.7 °C -0.3 °C 1016.8 hPa Calm     93 % 0 mm
06:29 0.5 °C -0.7 °C 1017.2 hPa Calm     92 % 0 mm
06:34 0.4 °C -0.8 °C 1017.2 hPa Calm     92 % 0 mm
06:39 0.1 °C -1.1 °C 1017.2 hPa Calm     92 % 0 mm
06:44 -0.1 °C -1.3 °C 1017.5 hPa Calm     92 % 0 mm
06:49 0 °C -1 °C 1017.5 hPa Calm     93 % 0 mm
06:54 0.1 °C -0.9 °C 1017.5 hPa Calm     93 % 0 mm
06:59 0.1 °C -0.9 °C 1017.8 hPa Calm     93 % 0 mm
07:04 0.1 °C -0.9 °C 1017.8 hPa Calm     93 % 0 mm
07:09 0.2 °C -0.8 °C 1018.2 hPa Calm     93 % 0 mm
07:14 0.3 °C -0.5 °C 1018.2 hPa Calm     94 % 0 mm
07:19 0.4 °C -0.4 °C 1018.2 hPa Calm     94 % 0 mm
07:24 0.6 °C -0.3 °C 1018.2 hPa Calm     94 % 0 mm
07:29 0.8 °C 0 °C 1018.5 hPa East 1.9 km/h   94 % 0 mm
07:34 1.1 °C 0.3 °C 1018.5 hPa Calm     94 % 0 mm
07:39 1.4 °C 0.6 °C 1018.8 hPa Calm     94 % 0 mm
07:44 2.3 °C 1.6 °C 1018.8 hPa Calm     95 % 0 mm
07:49 3 °C 2.1 °C 1018.8 hPa Calm     94 % 0 mm
07:54 3.4 °C 2.1 °C 1019.2 hPa Calm     91 % 0 mm
07:59 3.9 °C 2.3 °C 1019.2 hPa ESE 1.9 km/h   89 % 0 mm
08:04 4.3 °C 2.5 °C 1019.2 hPa Calm     88 % 0 mm
08:09 4.7 °C 2.2 °C 1019.5 hPa Calm     84 % 0 mm
08:14 5.2 °C 2.5 °C 1019.5 hPa Calm     83 % 0 mm
08:19 5.6 °C 2.4 °C 1019.5 hPa ESE 1.9 km/h 0.2 km/h 80 % 0 mm
08:24 5.9 °C 2.3 °C 1019.5 hPa SSW 1.9 km/h   78 % 0 mm
08:29 5.8 °C 2.1 °C 1019.5 hPa Calm     77 % 0 mm
08:34 6 °C 2.3 °C 1019.5 hPa SSE 1.9 km/h 0.5 km/h 77 % 0 mm
08:39 6.2 °C 2.4 °C 1019.5 hPa ESE 1.9 km/h 1.3 km/h 77 % 0 mm
08:44 6.3 °C 2.8 °C 1019.9 hPa Calm   0.8 km/h 78 % 0 mm
08:49 6.6 °C 2.4 °C 1019.9 hPa ESE 5.6 km/h 1.8 km/h 75 % 0 mm
08:55 6.9 °C 2.8 °C 1019.9 hPa NE 1.9 km/h 0.3 km/h 75 % 0 mm
08:59 7.2 °C 2.7 °C 1019.9 hPa ENE 3.7 km/h 0.3 km/h 73 % 0 mm
09:04 7.4 °C 3.1 °C 1019.9 hPa East 1.9 km/h   74 % 0 mm
09:09 7.8 °C 2.8 °C 1019.9 hPa South 5.6 km/h   71 % 0 mm
09:14 8.2 °C 3 °C 1019.9 hPa ENE 1.6 km/h   70 % 0 mm
09:19 8.3 °C 2.9 °C 1019.9 hPa SSE 3.7 km/h 0.6 km/h 69 % 0 mm
Park Place, Exeter, Tulare County, California, USA
Compliments of Weather Underground - 1.75 mb